sensor_id;sensor_type;location;lat;lon;timestamp;temperature;humidity
20658;DHT22;10488;50.846;4.078;2022-10-30T00:02:15;16.50;99.90
20658;DHT22;10488;50.846;4.078;2022-10-30T00:04:41;16.50;99.90
20658;DHT22;10488;50.846;4.078;2022-10-30T00:07:07;16.50;99.90
20658;DHT22;10488;50.846;4.078;2022-10-30T00:09:32;16.50;99.90
20658;DHT22;10488;50.846;4.078;2022-10-30T00:11:58;16.50;99.90
20658;DHT22;10488;50.846;4.078;2022-10-30T00:14:24;16.50;99.90
20658;DHT22;10488;50.846;4.078;2022-10-30T00:16:49;16.50;99.90
20658;DHT22;10488;50.846;4.078;2022-10-30T00:19:15;16.50;99.90
20658;DHT22;10488;50.846;4.078;2022-10-30T00:21:40;16.50;99.90
20658;DHT22;10488;50.846;4.078;2022-10-30T00:24:06;16.50;99.90
20658;DHT22;10488;50.846;4.078;2022-10-30T00:26:32;16.50;99.90
20658;DHT22;10488;50.846;4.078;2022-10-30T00:28:58;16.50;99.90
20658;DHT22;10488;50.846;4.078;2022-10-30T00:31:23;16.40;99.90
20658;DHT22;10488;50.846;4.078;2022-10-30T00:33:53;16.40;99.90
20658;DHT22;10488;50.846;4.078;2022-10-30T00:36:19;16.40;99.90
20658;DHT22;10488;50.846;4.078;2022-10-30T00:38:45;16.30;99.90
20658;DHT22;10488;50.846;4.078;2022-10-30T00:41:21;16.30;99.90
20658;DHT22;10488;50.846;4.078;2022-10-30T00:43:48;16.20;99.90
20658;DHT22;10488;50.846;4.078;2022-10-30T00:48:59;16.10;99.90
20658;DHT22;10488;50.846;4.078;2022-10-30T00:51:27;16.00;99.90
20658;DHT22;10488;50.846;4.078;2022-10-30T00:53:54;16.10;99.90
20658;DHT22;10488;50.846;4.078;2022-10-30T00:56:21;16.10;99.90
20658;DHT22;10488;50.846;4.078;2022-10-30T00:58:53;16.10;99.90
20658;DHT22;10488;50.846;4.078;2022-10-30T01:01:23;16.00;99.90
20658;DHT22;10488;50.846;4.078;2022-10-30T01:03:53;15.90;99.90
20658;DHT22;10488;50.846;4.078;2022-10-30T01:06:19;16.00;99.90
20658;DHT22;10488;50.846;4.078;2022-10-30T01:08:46;16.00;99.90
20658;DHT22;10488;50.846;4.078;2022-10-30T01:11:12;16.00;99.90
20658;DHT22;10488;50.846;4.078;2022-10-30T01:13:39;15.90;99.90
20658;DHT22;10488;50.846;4.078;2022-10-30T01:21:08;16.00;99.90
20658;DHT22;10488;50.846;4.078;2022-10-30T01:23:52;16.00;99.90
20658;DHT22;10488;50.846;4.078;2022-10-30T01:31:56;15.90;99.90
20658;DHT22;10488;50.846;4.078;2022-10-30T01:34:43;15.90;99.90
20658;DHT22;10488;50.846;4.078;2022-10-30T01:37:38;15.90;99.90
20658;DHT22;10488;50.846;4.078;2022-10-30T01:40:10;15.90;99.90
20658;DHT22;10488;50.846;4.078;2022-10-30T01:45:05;15.90;99.90
20658;DHT22;10488;50.846;4.078;2022-10-30T01:48:02;16.00;99.90
20658;DHT22;10488;50.846;4.078;2022-10-30T01:50:47;16.00;99.90
20658;DHT22;10488;50.846;4.078;2022-10-30T01:56:21;16.00;99.90
20658;DHT22;10488;50.846;4.078;2022-10-30T02:01:33;16.00;99.90
20658;DHT22;10488;50.846;4.078;2022-10-30T02:04:01;15.90;99.90
20658;DHT22;10488;50.846;4.078;2022-10-30T02:06:27;15.90;99.90
20658;DHT22;10488;50.846;4.078;2022-10-30T02:08:56;16.00;99.90
20658;DHT22;10488;50.846;4.078;2022-10-30T02:11:24;15.90;99.90
20658;DHT22;10488;50.846;4.078;2022-10-30T02:13:53;15.90;99.90
20658;DHT22;10488;50.846;4.078;2022-10-30T02:16:20;15.90;99.90
20658;DHT22;10488;50.846;4.078;2022-10-30T02:18:46;15.90;99.90
20658;DHT22;10488;50.846;4.078;2022-10-30T02:21:11;15.80;99.90
20658;DHT22;10488;50.846;4.078;2022-10-30T02:23:37;15.80;99.90
20658;DHT22;10488;50.846;4.078;2022-10-30T02:26:03;15.60;99.90
20658;DHT22;10488;50.846;4.078;2022-10-30T02:28:28;15.60;99.90
20658;DHT22;10488;50.846;4.078;2022-10-30T02:30:54;15.70;99.90
20658;DHT22;10488;50.846;4.078;2022-10-30T02:33:20;15.60;99.90
20658;DHT22;10488;50.846;4.078;2022-10-30T02:35:45;15.60;99.90
20658;DHT22;10488;50.846;4.078;2022-10-30T02:38:11;15.60;99.90
20658;DHT22;10488;50.846;4.078;2022-10-30T02:40:37;15.50;99.90
20658;DHT22;10488;50.846;4.078;2022-10-30T02:43:02;15.50;99.90
20658;DHT22;10488;50.846;4.078;2022-10-30T02:45:28;15.50;99.90
20658;DHT22;10488;50.846;4.078;2022-10-30T02:47:54;15.40;99.90
20658;DHT22;10488;50.846;4.078;2022-10-30T02:50:19;15.40;99.90
20658;DHT22;10488;50.846;4.078;2022-10-30T02:52:45;15.30;99.90
20658;DHT22;10488;50.846;4.078;2022-10-30T02:55:11;15.30;99.90
20658;DHT22;10488;50.846;4.078;2022-10-30T02:57:36;15.30;99.90
20658;DHT22;10488;50.846;4.078;2022-10-30T03:00:03;15.30;99.90
20658;DHT22;10488;50.846;4.078;2022-10-30T03:02:29;15.20;99.90
20658;DHT22;10488;50.846;4.078;2022-10-30T03:04:54;15.20;99.90
20658;DHT22;10488;50.846;4.078;2022-10-30T03:07:20;15.10;99.90
20658;DHT22;10488;50.846;4.078;2022-10-30T03:09:45;15.10;99.90
20658;DHT22;10488;50.846;4.078;2022-10-30T03:12:12;15.00;99.90
20658;DHT22;10488;50.846;4.078;2022-10-30T03:14:38;15.00;99.90
20658;DHT22;10488;50.846;4.078;2022-10-30T03:17:04;15.00;99.90
20658;DHT22;10488;50.846;4.078;2022-10-30T03:19:29;14.80;99.90
20658;DHT22;10488;50.846;4.078;2022-10-30T03:21:55;14.90;99.90
20658;DHT22;10488;50.846;4.078;2022-10-30T03:24:21;14.90;99.90
20658;DHT22;10488;50.846;4.078;2022-10-30T03:26:47;14.90;99.90
20658;DHT22;10488;50.846;4.078;2022-10-30T03:29:12;14.80;99.90
20658;DHT22;10488;50.846;4.078;2022-10-30T03:31:38;14.80;99.90
20658;DHT22;10488;50.846;4.078;2022-10-30T03:34:03;14.80;99.90
20658;DHT22;10488;50.846;4.078;2022-10-30T03:36:29;14.90;99.90
20658;DHT22;10488;50.846;4.078;2022-10-30T03:38:55;14.90;99.90
20658;DHT22;10488;50.846;4.078;2022-10-30T03:41:21;14.90;99.90
20658;DHT22;10488;50.846;4.078;2022-10-30T03:43:46;14.90;99.90
20658;DHT22;10488;50.846;4.078;2022-10-30T03:46:12;14.90;99.90
20658;DHT22;10488;50.846;4.078;2022-10-30T03:48:37;14.90;99.90
20658;DHT22;10488;50.846;4.078;2022-10-30T03:51:03;14.90;99.90
20658;DHT22;10488;50.846;4.078;2022-10-30T03:53:29;14.90;99.90
20658;DHT22;10488;50.846;4.078;2022-10-30T03:56:00;14.90;99.90
20658;DHT22;10488;50.846;4.078;2022-10-30T03:58:27;15.00;99.90
20658;DHT22;10488;50.846;4.078;2022-10-30T04:00:53;15.00;99.90
20658;DHT22;10488;50.846;4.078;2022-10-30T04:03:19;15.00;99.90
20658;DHT22;10488;50.846;4.078;2022-10-30T04:05:45;15.00;99.90
20658;DHT22;10488;50.846;4.078;2022-10-30T04:08:12;15.00;99.90
20658;DHT22;10488;50.846;4.078;2022-10-30T04:10:42;15.00;99.90
20658;DHT22;10488;50.846;4.078;2022-10-30T04:13:10;15.00;99.90
20658;DHT22;10488;50.846;4.078;2022-10-30T04:15:36;15.00;99.90
20658;DHT22;10488;50.846;4.078;2022-10-30T04:18:02;15.00;99.90
20658;DHT22;10488;50.846;4.078;2022-10-30T04:20:28;15.00;99.90
20658;DHT22;10488;50.846;4.078;2022-10-30T04:22:59;15.00;99.90
20658;DHT22;10488;50.846;4.078;2022-10-30T04:25:25;14.80;99.90
20658;DHT22;10488;50.846;4.078;2022-10-30T04:27:51;14.80;99.90
20658;DHT22;10488;50.846;4.078;2022-10-30T04:30:21;14.70;99.90
20658;DHT22;10488;50.846;4.078;2022-10-30T04:32:51;14.70;99.90
20658;DHT22;10488;50.846;4.078;2022-10-30T04:35:19;14.30;99.90
20658;DHT22;10488;50.846;4.078;2022-10-30T04:37:52;14.30;99.90
20658;DHT22;10488;50.846;4.078;2022-10-30T04:40:19;14.10;99.90
20658;DHT22;10488;50.846;4.078;2022-10-30T04:42:46;14.10;99.90
20658;DHT22;10488;50.846;4.078;2022-10-30T04:45:12;14.00;99.90
20658;DHT22;10488;50.846;4.078;2022-10-30T04:47:37;14.10;99.90
20658;DHT22;10488;50.846;4.078;2022-10-30T04:50:03;14.20;99.90
20658;DHT22;10488;50.846;4.078;2022-10-30T04:52:29;14.20;99.90
20658;DHT22;10488;50.846;4.078;2022-10-30T04:54:54;14.20;99.90
20658;DHT22;10488;50.846;4.078;2022-10-30T04:57:20;14.20;99.90
20658;DHT22;10488;50.846;4.078;2022-10-30T04:59:46;14.20;99.90
20658;DHT22;10488;50.846;4.078;2022-10-30T05:02:11;14.10;99.90
20658;DHT22;10488;50.846;4.078;2022-10-30T05:04:37;14.10;99.90
20658;DHT22;10488;50.846;4.078;2022-10-30T05:07:02;13.80;99.90
20658;DHT22;10488;50.846;4.078;2022-10-30T05:09:29;13.80;99.90
20658;DHT22;10488;50.846;4.078;2022-10-30T05:11:54;13.80;99.90
20658;DHT22;10488;50.846;4.078;2022-10-30T05:14:20;13.80;99.90
20658;DHT22;10488;50.846;4.078;2022-10-30T05:16:45;13.80;99.90
20658;DHT22;10488;50.846;4.078;2022-10-30T05:19:11;13.80;99.90
20658;DHT22;10488;50.846;4.078;2022-10-30T05:21:36;13.80;99.90
20658;DHT22;10488;50.846;4.078;2022-10-30T05:24:02;13.80;99.90
20658;DHT22;10488;50.846;4.078;2022-10-30T05:26:28;13.70;99.90
20658;DHT22;10488;50.846;4.078;2022-10-30T05:28:54;13.70;99.90
20658;DHT22;10488;50.846;4.078;2022-10-30T05:31:19;13.60;99.90
20658;DHT22;10488;50.846;4.078;2022-10-30T05:33:45;13.70;99.90
20658;DHT22;10488;50.846;4.078;2022-10-30T05:36:10;13.80;99.90
20658;DHT22;10488;50.846;4.078;2022-10-30T05:38:36;13.80;99.90
20658;DHT22;10488;50.846;4.078;2022-10-30T05:41:02;13.80;99.90
20658;DHT22;10488;50.846;4.078;2022-10-30T05:43:27;13.90;99.90
20658;DHT22;10488;50.846;4.078;2022-10-30T05:45:53;14.00;99.90
20658;DHT22;10488;50.846;4.078;2022-10-30T05:48:18;14.10;99.90
20658;DHT22;10488;50.846;4.078;2022-10-30T05:50:44;14.10;99.90
20658;DHT22;10488;50.846;4.078;2022-10-30T05:53:10;14.10;99.90
20658;DHT22;10488;50.846;4.078;2022-10-30T05:55:35;14.10;99.90
20658;DHT22;10488;50.846;4.078;2022-10-30T05:58:03;14.20;99.90
20658;DHT22;10488;50.846;4.078;2022-10-30T06:00:30;14.20;99.90
20658;DHT22;10488;50.846;4.078;2022-10-30T06:03:00;14.20;99.90
20658;DHT22;10488;50.846;4.078;2022-10-30T06:05:28;14.20;99.90
20658;DHT22;10488;50.846;4.078;2022-10-30T06:07:54;14.20;99.90
20658;DHT22;10488;50.846;4.078;2022-10-30T06:10:23;14.20;99.90
20658;DHT22;10488;50.846;4.078;2022-10-30T06:12:57;14.30;99.90
20658;DHT22;10488;50.846;4.078;2022-10-30T06:15:23;14.40;99.90
20658;DHT22;10488;50.846;4.078;2022-10-30T06:17:49;14.20;99.90
20658;DHT22;10488;50.846;4.078;2022-10-30T06:20:17;14.00;99.90
20658;DHT22;10488;50.846;4.078;2022-10-30T06:23:01;14.00;99.90
20658;DHT22;10488;50.846;4.078;2022-10-30T06:25:28;13.90;99.90
20658;DHT22;10488;50.846;4.078;2022-10-30T06:27:55;13.90;99.90
20658;DHT22;10488;50.846;4.078;2022-10-30T06:30:20;14.00;99.90
20658;DHT22;10488;50.846;4.078;2022-10-30T06:32:49;14.00;99.90
20658;DHT22;10488;50.846;4.078;2022-10-30T06:35:43;14.00;99.90
20658;DHT22;10488;50.846;4.078;2022-10-30T06:38:11;14.10;99.90
20658;DHT22;10488;50.846;4.078;2022-10-30T06:40:37;14.20;99.90
20658;DHT22;10488;50.846;4.078;2022-10-30T06:43:02;14.10;99.90
20658;DHT22;10488;50.846;4.078;2022-10-30T06:45:28;14.10;99.90
20658;DHT22;10488;50.846;4.078;2022-10-30T06:47:53;14.10;99.90
20658;DHT22;10488;50.846;4.078;2022-10-30T06:50:21;14.10;99.90
20658;DHT22;10488;50.846;4.078;2022-10-30T06:52:46;14.20;99.90
20658;DHT22;10488;50.846;4.078;2022-10-30T06:55:13;14.40;99.90
20658;DHT22;10488;50.846;4.078;2022-10-30T06:57:38;14.30;99.90
20658;DHT22;10488;50.846;4.078;2022-10-30T07:00:05;14.40;99.90
20658;DHT22;10488;50.846;4.078;2022-10-30T07:02:32;14.40;99.90
20658;DHT22;10488;50.846;4.078;2022-10-30T07:04:57;14.40;99.90
20658;DHT22;10488;50.846;4.078;2022-10-30T07:07:23;14.50;99.90
20658;DHT22;10488;50.846;4.078;2022-10-30T07:09:49;14.70;99.90
20658;DHT22;10488;50.846;4.078;2022-10-30T07:12:14;14.80;99.90
20658;DHT22;10488;50.846;4.078;2022-10-30T07:14:40;14.90;99.90
20658;DHT22;10488;50.846;4.078;2022-10-30T07:17:06;15.10;99.90
20658;DHT22;10488;50.846;4.078;2022-10-30T07:19:32;15.20;99.90
20658;DHT22;10488;50.846;4.078;2022-10-30T07:22:00;15.20;99.90
20658;DHT22;10488;50.846;4.078;2022-10-30T07:24:25;15.10;99.90
20658;DHT22;10488;50.846;4.078;2022-10-30T07:26:51;14.90;99.90
20658;DHT22;10488;50.846;4.078;2022-10-30T07:29:16;15.00;99.90
20658;DHT22;10488;50.846;4.078;2022-10-30T07:31:44;14.90;99.90
20658;DHT22;10488;50.846;4.078;2022-10-30T07:34:10;14.70;99.90
20658;DHT22;10488;50.846;4.078;2022-10-30T07:36:35;14.60;99.90
20658;DHT22;10488;50.846;4.078;2022-10-30T07:39:01;14.80;99.90
20658;DHT22;10488;50.846;4.078;2022-10-30T07:41:26;15.10;99.90
20658;DHT22;10488;50.846;4.078;2022-10-30T07:43:52;15.10;99.90
20658;DHT22;10488;50.846;4.078;2022-10-30T07:46:18;15.00;99.90
20658;DHT22;10488;50.846;4.078;2022-10-30T07:48:43;14.60;99.90
20658;DHT22;10488;50.846;4.078;2022-10-30T07:51:09;14.80;99.90
20658;DHT22;10488;50.846;4.078;2022-10-30T07:53:34;15.30;99.90
20658;DHT22;10488;50.846;4.078;2022-10-30T07:56:00;15.50;99.90
20658;DHT22;10488;50.846;4.078;2022-10-30T07:58:26;15.60;99.90
20658;DHT22;10488;50.846;4.078;2022-10-30T08:00:51;15.80;99.90
20658;DHT22;10488;50.846;4.078;2022-10-30T08:03:17;15.80;99.90
20658;DHT22;10488;50.846;4.078;2022-10-30T08:05:42;15.60;99.90
20658;DHT22;10488;50.846;4.078;2022-10-30T08:08:08;15.90;99.90
20658;DHT22;10488;50.846;4.078;2022-10-30T08:10:35;16.10;99.90
20658;DHT22;10488;50.846;4.078;2022-10-30T08:13:01;16.30;99.90
20658;DHT22;10488;50.846;4.078;2022-10-30T08:15:26;16.60;99.90
20658;DHT22;10488;50.846;4.078;2022-10-30T08:17:52;16.80;99.90
20658;DHT22;10488;50.846;4.078;2022-10-30T08:20:20;17.00;99.90
20658;DHT22;10488;50.846;4.078;2022-10-30T08:22:51;17.00;99.90
20658;DHT22;10488;50.846;4.078;2022-10-30T08:25:18;16.90;99.90
20658;DHT22;10488;50.846;4.078;2022-10-30T08:27:54;16.90;99.90
20658;DHT22;10488;50.846;4.078;2022-10-30T08:30:21;17.10;99.90
20658;DHT22;10488;50.846;4.078;2022-10-30T08:32:46;17.30;99.90
20658;DHT22;10488;50.846;4.078;2022-10-30T08:35:12;17.30;99.90
20658;DHT22;10488;50.846;4.078;2022-10-30T08:37:38;17.40;99.90
20658;DHT22;10488;50.846;4.078;2022-10-30T08:40:04;17.40;99.90
20658;DHT22;10488;50.846;4.078;2022-10-30T08:42:30;17.20;99.90
20658;DHT22;10488;50.846;4.078;2022-10-30T08:44:55;17.20;99.90
20658;DHT22;10488;50.846;4.078;2022-10-30T08:47:21;17.40;99.90
20658;DHT22;10488;50.846;4.078;2022-10-30T08:49:46;17.50;99.90
20658;DHT22;10488;50.846;4.078;2022-10-30T08:52:12;17.40;99.90
20658;DHT22;10488;50.846;4.078;2022-10-30T08:54:37;17.50;99.90
20658;DHT22;10488;50.846;4.078;2022-10-30T08:57:03;17.70;99.90
20658;DHT22;10488;50.846;4.078;2022-10-30T08:59:29;17.80;99.90
20658;DHT22;10488;50.846;4.078;2022-10-30T09:01:54;17.70;99.90
20658;DHT22;10488;50.846;4.078;2022-10-30T09:04:20;17.80;99.90
20658;DHT22;10488;50.846;4.078;2022-10-30T09:06:45;17.80;99.90
20658;DHT22;10488;50.846;4.078;2022-10-30T09:09:11;17.90;99.90
20658;DHT22;10488;50.846;4.078;2022-10-30T09:11:38;17.90;99.90
20658;DHT22;10488;50.846;4.078;2022-10-30T09:14:03;17.80;99.90
20658;DHT22;10488;50.846;4.078;2022-10-30T09:16:29;17.70;99.90
20658;DHT22;10488;50.846;4.078;2022-10-30T09:18:54;17.70;99.90
20658;DHT22;10488;50.846;4.078;2022-10-30T09:21:20;17.60;99.90
20658;DHT22;10488;50.846;4.078;2022-10-30T09:23:46;17.70;99.90
20658;DHT22;10488;50.846;4.078;2022-10-30T09:26:11;18.00;99.90
20658;DHT22;10488;50.846;4.078;2022-10-30T09:28:37;18.30;99.90
20658;DHT22;10488;50.846;4.078;2022-10-30T09:31:03;18.20;99.90
20658;DHT22;10488;50.846;4.078;2022-10-30T09:33:29;18.30;99.90
20658;DHT22;10488;50.846;4.078;2022-10-30T09:35:55;18.30;99.90
20658;DHT22;10488;50.846;4.078;2022-10-30T09:38:21;17.90;99.90
20658;DHT22;10488;50.846;4.078;2022-10-30T09:41:03;17.90;99.90
20658;DHT22;10488;50.846;4.078;2022-10-30T09:51:47;17.90;99.90
20658;DHT22;10488;50.846;4.078;2022-10-30T09:56:52;18.00;99.90
20658;DHT22;10488;50.846;4.078;2022-10-30T10:02:25;18.10;99.90
20658;DHT22;10488;50.846;4.078;2022-10-30T10:04:57;18.30;99.90
20658;DHT22;10488;50.846;4.078;2022-10-30T10:07:57;18.50;99.90
20658;DHT22;10488;50.846;4.078;2022-10-30T10:10:41;18.50;99.90
20658;DHT22;10488;50.846;4.078;2022-10-30T10:16:13;19.00;99.90
20658;DHT22;10488;50.846;4.078;2022-10-30T10:18:47;19.10;99.90
20658;DHT22;10488;50.846;4.078;2022-10-30T10:21:20;19.00;99.90
20658;DHT22;10488;50.846;4.078;2022-10-30T10:23:49;19.20;99.90
20658;DHT22;10488;50.846;4.078;2022-10-30T10:29:16;19.40;99.90
20658;DHT22;10488;50.846;4.078;2022-10-30T10:46:33;20.10;99.90
20658;DHT22;10488;50.846;4.078;2022-10-30T10:51:50;19.80;99.90
20658;DHT22;10488;50.846;4.078;2022-10-30T10:54:42;20.00;99.90
20658;DHT22;10488;50.846;4.078;2022-10-30T10:57:22;20.30;99.90
20658;DHT22;10488;50.846;4.078;2022-10-30T10:59:53;20.40;99.90
20658;DHT22;10488;50.846;4.078;2022-10-30T11:04:59;20.50;99.90
20658;DHT22;10488;50.846;4.078;2022-10-30T11:07:30;19.60;99.90
20658;DHT22;10488;50.846;4.078;2022-10-30T11:09:57;19.90;99.90
20658;DHT22;10488;50.846;4.078;2022-10-30T11:12:30;20.10;99.90
20658;DHT22;10488;50.846;4.078;2022-10-30T11:15:08;20.20;99.90
20658;DHT22;10488;50.846;4.078;2022-10-30T11:17:47;20.10;99.90
20658;DHT22;10488;50.846;4.078;2022-10-30T11:20:35;20.20;99.90
20658;DHT22;10488;50.846;4.078;2022-10-30T11:23:02;20.10;99.90
20658;DHT22;10488;50.846;4.078;2022-10-30T11:25:34;20.10;99.90
20658;DHT22;10488;50.846;4.078;2022-10-30T11:28:03;19.90;99.90
20658;DHT22;10488;50.846;4.078;2022-10-30T11:30:29;20.00;99.90
20658;DHT22;10488;50.846;4.078;2022-10-30T11:32:57;20.30;99.90
20658;DHT22;10488;50.846;4.078;2022-10-30T11:35:24;20.30;99.90
20658;DHT22;10488;50.846;4.078;2022-10-30T11:38:01;20.50;99.90
20658;DHT22;10488;50.846;4.078;2022-10-30T11:40:35;20.60;99.90
20658;DHT22;10488;50.846;4.078;2022-10-30T11:43:03;20.60;99.90
20658;DHT22;10488;50.846;4.078;2022-10-30T11:45:35;20.50;99.90
20658;DHT22;10488;50.846;4.078;2022-10-30T11:48:09;20.50;99.90
20658;DHT22;10488;50.846;4.078;2022-10-30T11:50:36;20.30;99.90
20658;DHT22;10488;50.846;4.078;2022-10-30T11:53:10;20.10;99.90
20658;DHT22;10488;50.846;4.078;2022-10-30T11:55:56;20.10;99.90
20658;DHT22;10488;50.846;4.078;2022-10-30T12:03:40;20.20;99.90
20658;DHT22;10488;50.846;4.078;2022-10-30T12:08:40;20.30;99.90
20658;DHT22;10488;50.846;4.078;2022-10-30T12:11:06;20.50;99.90
20658;DHT22;10488;50.846;4.078;2022-10-30T12:13:41;20.50;99.90
20658;DHT22;10488;50.846;4.078;2022-10-30T12:16:17;20.40;99.90
20658;DHT22;10488;50.846;4.078;2022-10-30T12:19:07;20.40;99.90
20658;DHT22;10488;50.846;4.078;2022-10-30T12:21:46;20.70;99.90
20658;DHT22;10488;50.846;4.078;2022-10-30T12:26:51;21.40;99.90
20658;DHT22;10488;50.846;4.078;2022-10-30T12:29:21;21.20;99.90
20658;DHT22;10488;50.846;4.078;2022-10-30T12:31:55;21.10;99.90
20658;DHT22;10488;50.846;4.078;2022-10-30T12:34:43;21.30;99.90
20658;DHT22;10488;50.846;4.078;2022-10-30T12:42:22;21.30;99.90
20658;DHT22;10488;50.846;4.078;2022-10-30T12:47:50;21.00;99.90
20658;DHT22;10488;50.846;4.078;2022-10-30T12:50:22;21.30;99.90
20658;DHT22;10488;50.846;4.078;2022-10-30T12:52:58;21.30;99.90
20658;DHT22;10488;50.846;4.078;2022-10-30T12:55:38;21.60;99.90
20658;DHT22;10488;50.846;4.078;2022-10-30T12:58:20;21.20;99.90
20658;DHT22;10488;50.846;4.078;2022-10-30T13:03:38;21.40;99.90
20658;DHT22;10488;50.846;4.078;2022-10-30T13:06:06;21.40;99.90
20658;DHT22;10488;50.846;4.078;2022-10-30T13:11:38;21.10;99.90
20658;DHT22;10488;50.846;4.078;2022-10-30T13:14:12;21.20;99.90
20658;DHT22;10488;50.846;4.078;2022-10-30T13:16:39;21.40;99.90
20658;DHT22;10488;50.846;4.078;2022-10-30T13:19:07;21.10;99.90
20658;DHT22;10488;50.846;4.078;2022-10-30T13:26:56;21.00;99.90
20658;DHT22;10488;50.846;4.078;2022-10-30T13:37:48;21.20;99.90
20658;DHT22;10488;50.846;4.078;2022-10-30T13:40:50;21.10;99.90
20658;DHT22;10488;50.846;4.078;2022-10-30T13:46:47;20.80;99.90
20658;DHT22;10488;50.846;4.078;2022-10-30T13:52:19;20.50;99.90
20658;DHT22;10488;50.846;4.078;2022-10-30T13:57:41;20.20;99.90
20658;DHT22;10488;50.846;4.078;2022-10-30T14:00:18;20.30;99.90
20658;DHT22;10488;50.846;4.078;2022-10-30T14:02:53;20.20;99.90
20658;DHT22;10488;50.846;4.078;2022-10-30T14:08:35;20.20;99.90
20658;DHT22;10488;50.846;4.078;2022-10-30T14:11:04;20.30;99.90
20658;DHT22;10488;50.846;4.078;2022-10-30T14:16:36;20.50;99.90
20658;DHT22;10488;50.846;4.078;2022-10-30T14:19:06;20.30;99.90
20658;DHT22;10488;50.846;4.078;2022-10-30T14:21:49;20.30;99.90
20658;DHT22;10488;50.846;4.078;2022-10-30T14:24:31;19.90;99.90
20658;DHT22;10488;50.846;4.078;2022-10-30T14:32:02;19.80;99.90
20658;DHT22;10488;50.846;4.078;2022-10-30T14:40:32;19.80;99.90
20658;DHT22;10488;50.846;4.078;2022-10-30T14:43:05;20.00;99.90
20658;DHT22;10488;50.846;4.078;2022-10-30T14:45:49;20.00;99.90
20658;DHT22;10488;50.846;4.078;2022-10-30T14:48:47;19.80;99.90
20658;DHT22;10488;50.846;4.078;2022-10-30T14:51:37;19.70;99.90
20658;DHT22;10488;50.846;4.078;2022-10-30T14:56:50;19.60;99.90
20658;DHT22;10488;50.846;4.078;2022-10-30T15:02:11;19.80;99.90
20658;DHT22;10488;50.846;4.078;2022-10-30T15:07:32;19.60;99.90
20658;DHT22;10488;50.846;4.078;2022-10-30T15:13:12;19.30;99.90
20658;DHT22;10488;50.846;4.078;2022-10-30T15:15:43;19.10;99.90
20658;DHT22;10488;50.846;4.078;2022-10-30T15:18:16;19.10;99.90
20658;DHT22;10488;50.846;4.078;2022-10-30T15:20:43;19.00;99.90
20658;DHT22;10488;50.846;4.078;2022-10-30T15:23:31;19.10;99.90
20658;DHT22;10488;50.846;4.078;2022-10-30T15:26:00;19.20;99.90
20658;DHT22;10488;50.846;4.078;2022-10-30T15:28:34;19.00;99.90
20658;DHT22;10488;50.846;4.078;2022-10-30T15:31:07;18.50;99.90
20658;DHT22;10488;50.846;4.078;2022-10-30T15:33:44;18.40;99.90
20658;DHT22;10488;50.846;4.078;2022-10-30T15:36:17;18.50;99.90
20658;DHT22;10488;50.846;4.078;2022-10-30T15:38:43;18.60;99.90
20658;DHT22;10488;50.846;4.078;2022-10-30T15:41:10;18.60;99.90
20658;DHT22;10488;50.846;4.078;2022-10-30T15:43:39;18.60;99.90
20658;DHT22;10488;50.846;4.078;2022-10-30T15:46:10;18.60;99.90
20658;DHT22;10488;50.846;4.078;2022-10-30T15:48:39;18.50;99.90
20658;DHT22;10488;50.846;4.078;2022-10-30T15:51:16;18.50;99.90
20658;DHT22;10488;50.846;4.078;2022-10-30T15:53:46;18.40;99.90
20658;DHT22;10488;50.846;4.078;2022-10-30T15:56:30;18.50;99.90
20658;DHT22;10488;50.846;4.078;2022-10-30T15:59:02;18.50;99.90
20658;DHT22;10488;50.846;4.078;2022-10-30T16:01:32;18.50;99.90
20658;DHT22;10488;50.846;4.078;2022-10-30T16:03:59;18.20;99.90
20658;DHT22;10488;50.846;4.078;2022-10-30T16:06:30;18.20;99.90
20658;DHT22;10488;50.846;4.078;2022-10-30T16:08:56;18.20;99.90
20658;DHT22;10488;50.846;4.078;2022-10-30T16:11:23;18.10;99.90
20658;DHT22;10488;50.846;4.078;2022-10-30T16:13:51;18.20;99.90
20658;DHT22;10488;50.846;4.078;2022-10-30T16:16:28;18.30;99.90
20658;DHT22;10488;50.846;4.078;2022-10-30T16:18:59;18.20;99.90
20658;DHT22;10488;50.846;4.078;2022-10-30T16:21:27;18.20;99.90
20658;DHT22;10488;50.846;4.078;2022-10-30T16:24:01;17.70;99.90
20658;DHT22;10488;50.846;4.078;2022-10-30T16:26:33;17.70;99.90
20658;DHT22;10488;50.846;4.078;2022-10-30T16:31:42;17.70;99.90
20658;DHT22;10488;50.846;4.078;2022-10-30T16:34:12;17.80;99.90
20658;DHT22;10488;50.846;4.078;2022-10-30T16:36:41;17.70;99.90
20658;DHT22;10488;50.846;4.078;2022-10-30T16:39:11;17.70;99.90
20658;DHT22;10488;50.846;4.078;2022-10-30T16:41:38;17.60;99.90
20658;DHT22;10488;50.846;4.078;2022-10-30T16:49:11;17.50;99.90
20658;DHT22;10488;50.846;4.078;2022-10-30T16:51:38;17.40;99.90
20658;DHT22;10488;50.846;4.078;2022-10-30T16:54:05;17.20;99.90
20658;DHT22;10488;50.846;4.078;2022-10-30T16:56:31;16.90;99.90
20658;DHT22;10488;50.846;4.078;2022-10-30T16:59:15;17.00;99.90
20658;DHT22;10488;50.846;4.078;2022-10-30T17:01:42;17.00;99.90
20658;DHT22;10488;50.846;4.078;2022-10-30T17:04:13;17.10;99.90
20658;DHT22;10488;50.846;4.078;2022-10-30T17:06:42;17.20;99.90
20658;DHT22;10488;50.846;4.078;2022-10-30T17:09:25;17.00;99.90
20658;DHT22;10488;50.846;4.078;2022-10-30T17:12:22;17.00;99.90
20658;DHT22;10488;50.846;4.078;2022-10-30T17:15:00;17.00;99.90
20658;DHT22;10488;50.846;4.078;2022-10-30T17:20:03;16.70;99.90
20658;DHT22;10488;50.846;4.078;2022-10-30T17:22:29;16.70;99.90
20658;DHT22;10488;50.846;4.078;2022-10-30T17:24:56;16.70;99.90
20658;DHT22;10488;50.846;4.078;2022-10-30T17:29:55;16.70;99.90
20658;DHT22;10488;50.846;4.078;2022-10-30T17:32:45;16.60;99.90
20658;DHT22;10488;50.846;4.078;2022-10-30T17:35:18;16.60;99.90
20658;DHT22;10488;50.846;4.078;2022-10-30T17:37:44;16.60;99.90
20658;DHT22;10488;50.846;4.078;2022-10-30T17:40:11;16.50;99.90
20658;DHT22;10488;50.846;4.078;2022-10-30T17:42:36;16.50;99.90
20658;DHT22;10488;50.846;4.078;2022-10-30T17:45:03;16.40;99.90
20658;DHT22;10488;50.846;4.078;2022-10-30T17:47:31;16.30;99.90
20658;DHT22;10488;50.846;4.078;2022-10-30T17:49:57;16.20;99.90
20658;DHT22;10488;50.846;4.078;2022-10-30T17:52:24;16.10;99.90
20658;DHT22;10488;50.846;4.078;2022-10-30T17:54:49;16.10;99.90
20658;DHT22;10488;50.846;4.078;2022-10-30T17:57:15;16.10;99.90
20658;DHT22;10488;50.846;4.078;2022-10-30T17:59:41;16.10;99.90
20658;DHT22;10488;50.846;4.078;2022-10-30T18:02:19;16.00;99.90
20658;DHT22;10488;50.846;4.078;2022-10-30T18:04:45;16.00;99.90
20658;DHT22;10488;50.846;4.078;2022-10-30T18:07:13;16.00;99.90
20658;DHT22;10488;50.846;4.078;2022-10-30T18:09:40;16.00;99.90
20658;DHT22;10488;50.846;4.078;2022-10-30T18:12:07;16.10;99.90
20658;DHT22;10488;50.846;4.078;2022-10-30T18:14:34;16.00;99.90